| time (UTC) | temp C | wind direction | speed KPH | gust KPH | rain 1hr cm | rain 24hr cm | rain mn cm | humidity % | barometer mb |
| 20260504081507 | 8 | 26 | 16.1 | 29.0 | 0.00 | 0.00 | 0.00 | 52 | 1015.4 |
| 20260504050016 | 13 | 47 | 22.5 | 35.4 | 0.00 | 0.00 | 0.00 | 37 | 1010.2 |
| 20260504044531 | 13 | 15 | 14.5 | 29.0 | 0.00 | 0.00 | 0.00 | 37 | 1009.7 |
| 20260504043019 | 13 | 30 | 11.3 | 25.7 | 0.00 | 0.00 | 0.00 | 36 | 1009.2 |
| 20260504041514 | 14 | 28 | 16.1 | 22.5 | 0.00 | 0.00 | 0.00 | 35 | 1008.9 |
| 20260504040013 | 14 | 46 | 14.5 | 22.5 | 0.00 | 0.00 | 0.00 | 35 | 1008.8 |
| 20260504034522 | 15 | 28 | 14.5 | 22.5 | 0.00 | 0.00 | 0.00 | 35 | 1008.5 |
| 20260504033016 | 15 | 41 | 17.7 | 29.0 | 0.00 | 0.00 | 0.00 | 34 | 1007.9 |
| 20260504031515 | 16 | 56 | 20.9 | 30.6 | 0.00 | 0.00 | 0.00 | 32 | 1007.7 |
| 20260504030004 | 16 | 34 | 19.3 | 29.0 | 0.00 | 0.00 | 0.00 | 29 | 1007.4 |
| 20260504024505 | 17 | 40 | 12.9 | 19.3 | 0.00 | 0.00 | 0.00 | 24 | 1007.3 |
| 20260504023004 | 18 | 21 | 4.8 | 11.3 | 0.00 | 0.00 | 0.00 | 22 | 1007.2 |
| 20260504021504 | 19 | 5 | 6.4 | 14.5 | 0.00 | 0.00 | 0.00 | 21 | 1007.2 |
| 20260504020008 | 20 | 360 | 14.5 | 20.9 | 0.00 | 0.00 | 0.00 | 20 | 1007.2 |
| 20260504014507 | 21 | 351 | 11.3 | 20.9 | 0.00 | 0.00 | 0.00 | 19 | 1007.3 |
| 20260504013009 | 22 | 9 | 14.5 | 27.4 | 0.00 | 0.00 | 0.00 | 18 | 1007.2 |
| 20260504011504 | 22 | 11 | 16.1 | 25.7 | 0.00 | 0.00 | 0.00 | 18 | 1007.3 |
| 20260504010009 | 23 | 351 | 17.7 | 27.4 | 0.00 | 0.00 | 0.00 | 17 | 1007.3 |
| 20260504004511 | 23 | 338 | 16.1 | 29.0 | 0.00 | 0.00 | 0.00 | 17 | 1007.5 |
| 20260504003011 | 23 | 326 | 14.5 | 20.9 | 0.00 | 0.00 | 0.00 | 17 | 1007.7 |
| 20260504001511 | 23 | 5 | 17.7 | 32.2 | 0.00 | 0.00 | 0.00 | 16 | 1007.7 |
| 20260504000014 | 23 | 5 | 11.3 | 27.4 | 0.00 | 0.00 | 0.00 | 16 | 1007.7 |
| 20260503234516 | 23 | 341 | 20.9 | 27.4 | 0.00 | 0.00 | 0.00 | 16 | 1007.7 |
| 20260503233017 | 24 | 290 | 17.7 | 37.0 | 0.00 | 0.00 | 0.00 | 16 | 1007.8 |
| 20260503231518 | 23 | 352 | 19.3 | 33.8 | 0.00 | 0.00 | 0.00 | 16 | 1007.9 |
| 20260503230018 | 23 | 280 | 6.4 | 20.9 | 0.00 | 0.00 | 0.00 | 16 | 1008.1 |
| 20260503224519 | 23 | 317 | 25.7 | 33.8 | 0.00 | 0.00 | 0.00 | 16 | 1008.4 |
| 20260503223020 | 23 | 265 | 12.9 | 30.6 | 0.00 | 0.00 | 0.00 | 16 | 1008.5 |
| 20260503221531 | 23 | 304 | 19.3 | 35.4 | 0.00 | 0.00 | 0.00 | 17 | 1008.8 |
| 20260503220024 | 23 | 331 | 9.7 | 32.2 | 0.00 | 0.00 | 0.00 | 16 | 1008.7 |
| 20260503214526 | 23 | 300 | 22.5 | 29.0 | 0.00 | 0.00 | 0.00 | 17 | 1008.9 |
| 20260503213030 | 22 | 266 | 17.7 | 30.6 | 0.00 | 0.00 | 0.00 | 16 | 1009.3 |
| 20260503211522 | 22 | 344 | 19.3 | 30.6 | 0.00 | 0.00 | 0.00 | 17 | 1009.6 |
| 20260503210026 | 22 | 240 | 14.5 | 27.4 | 0.00 | 0.00 | 0.00 | 16 | 1009.7 |
| 20260503204527 | 22 | 263 | 14.5 | 24.1 | 0.00 | 0.00 | 0.00 | 18 | 1010.0 |
| 20260503203023 | 22 | 352 | 17.7 | 33.8 | 0.00 | 0.00 | 0.00 | 18 | 1010.3 |
| 20260503201530 | 22 | 9 | 16.1 | 30.6 | 0.00 | 0.00 | 0.00 | 17 | 1010.5 |
| 20260503200032 | 21 | 308 | 19.3 | 35.4 | 0.00 | 0.00 | 0.00 | 19 | 1010.6 |
| 20260503194510 | 21 | 300 | 22.5 | 32.2 | 0.00 | 0.00 | 0.00 | 19 | 1010.9 |
| 20260503193013 | 21 | 293 | 17.7 | 37.0 | 0.00 | 0.00 | 0.00 | 18 | 1011.2 |
| 20260503191515 | 21 | 264 | 19.3 | 37.0 | 0.00 | 0.00 | 0.00 | 17 | 1011.3 |
| 20260503190022 | 21 | 322 | 24.1 | 37.0 | 0.00 | 0.00 | 0.00 | 18 | 1011.5 |
| 20260503184522 | 21 | 252 | 17.7 | 40.2 | 0.00 | 0.00 | 0.00 | 19 | 1011.5 |
| 20260503183036 | 20 | 273 | 16.1 | 27.4 | 0.00 | 0.00 | 0.00 | 19 | 1011.7 |
| 20260503181528 | 20 | 267 | 17.7 | 30.6 | 0.00 | 0.00 | 0.00 | 20 | 1012.0 |
| 20260503180020 | 20 | 265 | 19.3 | 32.2 | 0.00 | 0.00 | 0.00 | 21 | 1012.2 |
| 20260503174521 | 20 | 309 | 20.9 | 30.6 | 0.00 | 0.00 | 0.00 | 23 | 1012.4 |
| 20260503173040 | 20 | 284 | 16.1 | 24.1 | 0.00 | 0.00 | 0.00 | 24 | 1012.5 |
| 20260503171524 | 18 | 288 | 16.1 | 20.9 | 0.00 | 0.00 | 0.00 | 29 | 1012.5 |